Suggsville, Alabama
Current Conditions -  °F | °C
As of 8:53 AM on Sunday 21 Dec 2014 (Local Time) from KGZH Reporting Station
Overcast Overcast  
Wind Chill: 56°   Ceiling: 900
Heat Index: 56°   Visibility: 7mi
Dew Point: 51°   Wind: 8mph
Humidity: 84%   Direction: 50°NE
Pressure: 30.13"   Gusts: NA
Location:  31.6457°N, 87.6115°W
Report Text: KGZH 211453Z AUTO 05007KT 7SM BKN009 OVC055 13/11 A3013 RMK AO2 SLP202 T01330106 53001
Loading
Personal Weather Stations






























Interactive Weather Map New forecast layout! Learn more

10-Day Weather Forecast

Advertisements
Track Severe Weather on mobile